Time;durP1;ratioP1;P1;durP2;ratioP2;P2;SDS_P1;SDS_P2;PMS_P1;PMS_P2;Temp;Humidity;BMP_temperature;BMP_pressure;BME280_temperature;BME280_humidity;BME280_pressure;Samples;Min_cycle;Max_cycle;Signal;HPM_P1;HPM_P2
2022/12/10 00:01:42;;;;;;;1999.90;999.90;;;0.80;1.00;;;;;;5035434;28;20172;-67
2022/12/10 00:04:09;;;;;;;1999.90;999.90;;;0.80;1.00;;;;;;5035535;28;20643;-67
2022/12/10 00:06:36;;;;;;;1999.90;999.90;;;0.70;1.00;;;;;;5035478;28;20173;-67
2022/12/10 00:09:04;;;;;;;1999.90;999.90;;;0.60;1.00;;;;;;5035041;28;20200;-67
2022/12/10 00:11:30;;;;;;;1999.90;999.90;;;0.60;1.00;;;;;;5035550;28;20540;-67
2022/12/10 00:13:56;;;;;;;1999.90;999.90;;;0.50;1.00;;;;;;5035601;28;20200;-66
2022/12/10 00:16:25;;;;;;;1999.90;999.90;;;0.50;1.00;;;;;;5035648;28;20955;-67
2022/12/10 00:18:52;;;;;;;1999.90;999.90;;;0.50;1.00;;;;;;5035378;28;20242;-67
2022/12/10 00:21:21;;;;;;;1999.90;999.90;;;0.60;1.00;;;;;;5035264;28;20172;-67
2022/12/10 00:23:47;;;;;;;1999.90;999.90;;;0.60;1.00;;;;;;5035460;28;20172;-67
2022/12/10 00:26:22;;;;;;;1999.90;999.90;;;0.50;1.00;;;;;;5035668;28;20180;-67
2022/12/10 00:28:49;;;;;;;1999.90;999.90;;;0.40;1.00;;;;;;5035531;28;20191;-67
2022/12/10 00:31:18;;;;;;;1999.90;999.90;;;0.30;1.00;;;;;;5035315;28;20650;-66
2022/12/10 00:33:45;;;;;;;1999.90;999.90;;;0.20;1.00;;;;;;5035204;28;20603;-67
2022/12/10 00:36:14;;;;;;;1999.90;999.90;;;0.30;7.30;;;;;;5035269;28;20172;-68
2022/12/10 00:38:40;;;;;;;1999.90;999.90;;;0.30;4.30;;;;;;5033891;28;20610;-67
2022/12/10 00:41:06;;;;;;;1999.90;999.90;;;0.30;3.60;;;;;;5034927;28;20164;-67
2022/12/10 00:43:31;;;;;;;1999.90;999.90;;;0.30;1.00;;;;;;5035141;28;20234;-67
2022/12/10 00:45:58;;;;;;;1999.90;999.90;;;0.20;1.00;;;;;;5034559;28;20243;-68
2022/12/10 00:48:24;;;;;;;1999.90;999.90;;;0.10;1.00;;;;;;5034541;28;20176;-67
2022/12/10 00:51:00;;;;;;;1999.90;999.90;;;0.00;1.00;;;;;;5034590;28;20196;-68
2022/12/10 00:53:27;;;;;;;1999.90;999.90;;;0.00;1.00;;;;;;5034479;28;20835;-67
2022/12/10 00:55:53;;;;;;;1999.90;999.90;;;0.00;1.00;;;;;;5034647;28;20160;-67
2022/12/10 00:58:19;;;;;;;1999.90;999.90;;;0.00;1.00;;;;;;5034424;28;20247;-67
2022/12/10 01:00:45;;;;;;;1999.90;999.90;;;0.00;1.00;;;;;;5035050;28;20256;-67
2022/12/10 01:03:11;;;;;;;1999.90;999.90;;;-0.10;1.00;;;;;;5035029;28;20219;-67
2022/12/10 01:05:37;;;;;;;1999.90;999.90;;;-0.20;1.00;;;;;;5034860;28;20415;-68
2022/12/10 01:08:02;;;;;;;1999.90;999.90;;;-0.30;1.00;;;;;;5033003;28;20180;-67
2022/12/10 01:10:28;;;;;;;1999.90;999.90;;;-0.40;12.20;;;;;;5032154;28;20677;-67
2022/12/10 01:12:53;;;;;;;1999.90;999.90;;;-0.50;21.10;;;;;;5031907;28;20250;-67
2022/12/10 01:15:19;;;;;;;1999.90;999.90;;;-0.50;41.70;;;;;;5031979;28;20231;-67
2022/12/10 01:17:44;;;;;;;1999.90;999.90;;;-0.40;73.20;;;;;;5031854;28;20172;-67
2022/12/10 01:20:11;;;;;;;1999.90;999.90;;;-0.50;92.30;;;;;;5031771;28;20184;-67
2022/12/10 01:22:37;;;;;;;1999.90;999.90;;;-0.50;93.80;;;;;;5032045;28;20176;-67
2022/12/10 01:25:03;;;;;;;1999.90;999.90;;;-0.60;96.40;;;;;;5031825;28;20226;-67
2022/12/10 01:27:29;;;;;;;1999.90;999.90;;;-0.50;99.90;;;;;;5031747;28;20399;-67
2022/12/10 01:29:55;;;;;;;1999.90;999.90;;;-0.50;95.50;;;;;;5031655;28;20318;-67
2022/12/10 01:32:21;;;;;;;1999.90;999.90;;;-0.50;72.90;;;;;;5031738;28;20168;-67
2022/12/10 01:34:46;;;;;;;1999.90;999.90;;;-0.50;48.50;;;;;;5031662;28;20200;-68
2022/12/10 01:37:12;;;;;;;1999.90;999.90;;;-0.50;33.30;;;;;;5031475;28;20813;-67
2022/12/10 01:39:37;;;;;;;1999.90;999.90;;;-0.50;22.60;;;;;;5031661;28;20200;-68
2022/12/10 01:42:03;;;;;;;1999.90;999.90;;;-0.50;21.70;;;;;;5031805;28;20543;-68
2022/12/10 01:44:29;;;;;;;1999.90;999.90;;;-0.50;21.40;;;;;;5031668;28;20658;-67
2022/12/10 01:46:57;;;;;;;1999.90;999.90;;;-0.40;18.80;;;;;;5031477;28;20176;-67
2022/12/10 01:49:26;;;;;;;1999.90;999.90;;;-0.40;12.70;;;;;;5031331;28;20196;-67
2022/12/10 01:51:54;;;;;;;1999.90;999.90;;;-0.40;7.90;;;;;;5034675;28;20173;-67
2022/12/10 01:54:25;;;;;;;1999.90;999.90;;;-0.30;5.20;;;;;;5035363;28;20223;-68
2022/12/10 01:56:58;;;;;;;1999.90;999.90;;;-0.30;3.70;;;;;;5035185;28;20180;-68
2022/12/10 01:59:25;;;;;;;1999.90;999.90;;;-0.30;2.30;;;;;;5035309;28;20632;-67
2022/12/10 02:02:20;;;;;;;1999.90;999.90;;;-0.40;1.00;;;;;;5035243;28;20183;-67
2022/12/10 02:05:14;;;;;;;1999.90;999.90;;;-0.40;4.00;;;;;;5035288;28;20176;-67
2022/12/10 02:08:04;;;;;;;1999.90;999.90;;;-0.40;3.60;;;;;;5034974;28;20255;-67
2022/12/10 02:10:38;;;;;;;1999.90;999.90;;;-0.40;1.00;;;;;;5035093;28;20196;-67
2022/12/10 02:13:29;;;;;;;1999.90;999.90;;;-0.40;4.30;;;;;;5035041;28;20258;-67
2022/12/10 02:16:13;;;;;;;1999.90;999.90;;;-0.40;5.80;;;;;;5035039;28;20168;-68
2022/12/10 02:18:45;;;;;;;1999.90;999.90;;;-0.40;10.90;;;;;;5034752;28;20196;-67
2022/12/10 02:21:25;;;;;;;1999.90;999.90;;;-0.40;12.20;;;;;;5034846;28;20248;-67
2022/12/10 02:23:57;;;;;;;1999.90;999.90;;;-0.50;14.80;;;;;;5035074;28;20184;-67
2022/12/10 02:26:44;;;;;;;1999.90;999.90;;;-0.50;20.70;;;;;;5034759;28;20160;-67
2022/12/10 02:29:18;;;;;;;1999.90;999.90;;;-0.60;29.20;;;;;;5034638;28;20188;-68
2022/12/10 02:32:07;;;;;;;1999.90;999.90;;;-0.70;49.80;;;;;;5034823;28;20172;-67
2022/12/10 02:34:41;;;;;;;1999.90;999.90;;;-0.70;70.00;;;;;;5034649;28;20199;-67
2022/12/10 02:37:16;;;;;;;1999.90;999.90;;;-0.70;95.30;;;;;;5034515;28;20551;-67
2022/12/10 02:39:46;;;;;;;1999.90;999.90;;;-0.80;99.90;;;;;;5034504;28;20199;-67
2022/12/10 02:42:16;;;;;;;1999.90;999.90;;;-0.80;99.90;;;;;;5034565;28;20645;-68
2022/12/10 02:44:43;;;;;;;1999.90;999.90;;;-0.80;99.90;;;;;;5034527;28;20176;-68
2022/12/10 02:47:10;;;;;;;1999.90;999.90;;;-0.80;99.90;;;;;;5034288;28;20199;-68
2022/12/10 02:49:38;;;;;;;1999.90;999.90;;;-0.80;96.20;;;;;;5034187;28;20563;-68
2022/12/10 02:52:09;;;;;;;1999.90;999.90;;;-0.80;91.80;;;;;;5034331;28;20200;-68
2022/12/10 02:54:42;;;;;;;1999.90;999.90;;;-0.70;92.60;;;;;;5034349;28;20568;-68
2022/12/10 02:57:18;;;;;;;1999.90;999.90;;;-0.70;79.50;;;;;;5034225;28;20223;-68
2022/12/10 02:59:52;;;;;;;1999.90;999.90;;;-0.70;71.70;;;;;;5034179;28;20771;-68
2022/12/10 03:03:00;;;;;;;1999.90;999.90;;;-0.80;74.00;;;;;;5033036;28;20199;-68
2022/12/10 03:06:07;;;;;;;1999.90;999.90;;;-0.90;77.90;;;;;;5033735;28;20262;-68
2022/12/10 03:08:49;;;;;;;1999.90;999.90;;;-0.90;97.30;;;;;;5033689;28;20238;-68
2022/12/10 03:11:21;;;;;;;1999.90;999.90;;;-0.80;99.90;;;;;;5034075;28;20187;-68
2022/12/10 03:13:49;;;;;;;1999.90;999.90;;;-0.70;99.90;;;;;;5033909;28;20263;-68
2022/12/10 03:16:16;;;;;;;1999.90;999.90;;;-0.70;99.90;;;;;;5033803;28;20164;-68
2022/12/10 03:18:45;;;;;;;1999.90;999.90;;;-0.80;99.90;;;;;;5033607;28;20275;-68
2022/12/10 03:21:12;;;;;;;1999.90;999.90;;;-0.80;99.90;;;;;;5034176;28;20179;-67
2022/12/10 03:23:42;;;;;;;1999.90;999.90;;;-0.80;99.90;;;;;;5033889;28;20552;-67
2022/12/10 03:26:09;;;;;;;1999.90;999.90;;;-0.80;99.90;;;;;;5033875;28;20631;-67
2022/12/10 03:28:41;;;;;;;1999.90;999.90;;;-0.70;99.90;;;;;;5033474;28;20196;-67
2022/12/10 03:31:10;;;;;;;1999.90;999.90;;;-0.70;99.90;;;;;;5033706;28;20259;-67
2022/12/10 03:33:36;;;;;;;1999.90;999.90;;;-0.70;99.90;;;;;;5033560;28;20286;-67
2022/12/10 03:36:02;;;;;;;1999.90;999.90;;;-0.70;99.90;;;;;;5033479;28;20203;-67
2022/12/10 03:38:27;;;;;;;1999.90;999.90;;;-0.70;99.90;;;;;;5032337;28;20497;-67
2022/12/10 03:40:53;;;;;;;1999.90;999.90;;;-0.70;99.90;;;;;;5033842;28;20203;-67
2022/12/10 03:43:20;;;;;;;1999.90;999.90;;;-0.70;99.90;;;;;;5034586;28;20179;-67
2022/12/10 03:45:46;;;;;;;1999.90;999.90;;;-0.80;99.90;;;;;;5035054;28;20210;-67
2022/12/10 03:48:11;;;;;;;1999.90;999.90;;;-0.90;99.90;;;;;;5034755;28;20173;-67
2022/12/10 03:50:37;;;;;;;1999.90;999.90;;;-1.00;99.90;;;;;;5034862;28;20184;-66
2022/12/10 03:53:02;;;;;;;1999.90;999.90;;;-1.20;99.90;;;;;;5035063;28;20804;-67
2022/12/10 03:55:28;;;;;;;1999.90;999.90;;;-1.20;99.90;;;;;;5035722;28;20172;-68
2022/12/10 03:57:54;;;;;;;1999.90;999.90;;;-1.20;99.90;;;;;;5035665;28;20177;-67
2022/12/10 04:00:19;;;;;;;1999.90;999.90;;;-1.20;99.90;;;;;;5035179;28;20188;-66
2022/12/10 04:02:45;;;;;;;1999.90;999.90;;;-1.20;99.90;;;;;;5034737;28;20168;-67
2022/12/10 04:05:11;;;;;;;1999.90;999.90;;;-1.30;99.90;;;;;;5034745;28;20402;-67
2022/12/10 04:07:36;;;;;;;1999.90;999.90;;;-1.20;99.90;;;;;;5034511;28;20173;-68
2022/12/10 04:10:03;;;;;;;1999.90;999.90;;;-1.30;99.90;;;;;;5034620;28;20185;-67
2022/12/10 04:12:29;;;;;;;1999.90;999.90;;;-1.20;99.90;;;;;;5034792;28;20175;-67
2022/12/10 04:17:38;;;;;;;1999.90;999.90;;;-1.10;99.90;;;;;;5034753;28;20179;-67
2022/12/10 04:20:04;;;;;;;1999.90;999.90;;;-1.00;99.90;;;;;;5034475;28;20654;-67
2022/12/10 04:27:58;;;;;;;1999.90;999.90;;;-1.10;99.90;;;;;;5032893;28;20269;-67
2022/12/10 04:30:24;;;;;;;1999.90;999.90;;;-1.10;99.90;;;;;;5034713;28;20666;-67
2022/12/10 04:32:50;;;;;;;1999.90;999.90;;;-1.00;99.90;;;;;;5034780;28;20191;-67
2022/12/10 04:35:15;;;;;;;1999.90;999.90;;;-0.90;99.90;;;;;;5035188;28;20173;-68
2022/12/10 04:37:41;;;;;;;1999.90;999.90;;;-0.90;99.90;;;;;;5034982;28;20168;-67
2022/12/10 04:40:07;;;;;;;1999.90;999.90;;;-0.80;99.90;;;;;;5034440;28;20192;-67
2022/12/10 04:42:33;;;;;;;1999.90;999.90;;;-0.80;99.90;;;;;;5034383;28;20167;-67
2022/12/10 04:44:58;;;;;;;1999.90;999.90;;;-0.80;99.90;;;;;;5034748;28;20180;-67
2022/12/10 04:47:24;;;;;;;1999.90;999.90;;;-0.70;99.90;;;;;;5034693;28;20688;-68
2022/12/10 04:49:51;;;;;;;1999.90;999.90;;;-0.60;99.90;;;;;;5034745;28;20580;-67
2022/12/10 04:52:17;;;;;;;1999.90;999.90;;;-0.50;99.90;;;;;;5035462;28;20218;-67
2022/12/10 04:54:43;;;;;;;1999.90;999.90;;;-0.40;99.90;;;;;;5035035;28;20235;-67
2022/12/10 04:57:10;;;;;;;1999.90;999.90;;;-0.30;99.90;;;;;;5034945;28;20419;-66
2022/12/10 04:59:36;;;;;;;1999.90;999.90;;;-0.20;99.90;;;;;;5035378;28;20200;-67
2022/12/10 05:02:03;;;;;;;1999.90;999.90;;;-0.10;99.90;;;;;;5035054;28;20169;-68
2022/12/10 05:04:28;;;;;;;1999.90;999.90;;;-0.10;99.90;;;;;;5034476;28;20414;-67
2022/12/10 05:06:54;;;;;;;1999.90;999.90;;;-0.10;99.90;;;;;;5034110;28;20642;-68
2022/12/10 05:09:19;;;;;;;1999.90;999.90;;;0.00;99.90;;;;;;5034625;28;20196;-67
2022/12/10 05:11:45;;;;;;;1999.90;999.90;;;-0.10;99.90;;;;;;5034264;28;20173;-67
2022/12/10 05:14:12;;;;;;;1999.90;999.90;;;-0.10;99.90;;;;;;5034817;28;20250;-67
2022/12/10 05:16:38;;;;;;;1999.90;999.90;;;-0.10;99.90;;;;;;5034736;28;20172;-67
2022/12/10 05:19:03;;;;;;;1999.90;999.90;;;-0.10;99.90;;;;;;5034128;28;20331;-67
2022/12/10 05:24:15;;;;;;;1999.90;999.90;;;0.00;99.90;;;;;;5034411;28;20233;-68
2022/12/10 05:26:41;;;;;;;1999.90;999.90;;;-0.10;99.90;;;;;;5037129;28;20556;-66
2022/12/10 05:29:07;;;;;;;1999.90;999.90;;;-0.10;99.90;;;;;;5038160;28;20188;-67
2022/12/10 05:31:32;;;;;;;1999.90;999.90;;;-0.10;99.90;;;;;;5038256;28;20172;-68
2022/12/10 05:33:58;;;;;;;1999.90;999.90;;;0.00;99.90;;;;;;5037303;28;20211;-67
2022/12/10 05:36:26;;;;;;;1999.90;999.90;;;0.10;99.90;;;;;;5037568;28;20227;-68
2022/12/10 05:38:54;;;;;;;1999.90;999.90;;;0.10;99.90;;;;;;5037532;28;20433;-67
2022/12/10 05:41:25;;;;;;;1999.90;999.90;;;0.10;99.90;;;;;;5037998;28;20673;-67
2022/12/10 05:43:54;;;;;;;1999.90;999.90;;;0.00;99.90;;;;;;5037431;28;20183;-67
2022/12/10 05:46:22;;;;;;;1999.90;999.90;;;-0.10;99.90;;;;;;5037372;28;20207;-67
2022/12/10 05:48:48;;;;;;;1999.90;999.90;;;-0.20;99.90;;;;;;5035752;28;20223;-68
2022/12/10 05:51:17;;;;;;;1999.90;999.90;;;-0.20;99.90;;;;;;5035335;28;20192;-67
2022/12/10 05:53:42;;;;;;;1999.90;999.90;;;-0.30;99.90;;;;;;5035341;28;20208;-67
2022/12/10 05:56:11;;;;;;;1999.90;999.90;;;-0.30;99.90;;;;;;5035361;28;20230;-67
2022/12/10 05:58:37;;;;;;;1999.90;999.90;;;-0.30;99.90;;;;;;5035080;28;20435;-67
2022/12/10 06:01:18;;;;;;;1999.90;999.90;;;-0.30;99.90;;;;;;5035328;28;20657;-67
2022/12/10 06:03:44;;;;;;;1999.90;999.90;;;-0.40;99.90;;;;;;5035345;28;20172;-67
2022/12/10 06:06:11;;;;;;;1999.90;999.90;;;-0.40;99.90;;;;;;5035155;28;20183;-67
2022/12/10 06:08:37;;;;;;;1999.90;999.90;;;-0.30;99.90;;;;;;5035101;28;20199;-68
2022/12/10 06:11:08;;;;;;;1999.90;999.90;;;-0.30;99.90;;;;;;5035110;28;20225;-68
2022/12/10 06:13:34;;;;;;;1999.90;999.90;;;-0.30;99.90;;;;;;5035142;28;20196;-67
2022/12/10 06:16:03;;;;;;;1999.90;999.90;;;-0.20;99.90;;;;;;5034931;28;20175;-67
2022/12/10 06:18:29;;;;;;;1999.90;999.90;;;-0.20;99.90;;;;;;5034697;28;20565;-67
2022/12/10 06:20:55;;;;;;;1999.90;999.90;;;-0.10;99.90;;;;;;5035011;28;20717;-67
2022/12/10 06:23:20;;;;;;;1999.90;999.90;;;-0.10;99.90;;;;;;5035002;28;20177;-67
2022/12/10 06:25:46;;;;;;;1999.90;999.90;;;0.00;99.90;;;;;;5034955;28;20183;-67
2022/12/10 06:28:11;;;;;;;1999.90;999.90;;;0.00;99.90;;;;;;5034497;28;20630;-67
2022/12/10 06:30:37;;;;;;;1999.90;999.90;;;0.00;99.90;;;;;;5034841;28;20254;-67
2022/12/10 06:33:02;;;;;;;1999.90;999.90;;;0.10;99.90;;;;;;5034665;28;20179;-67
2022/12/10 06:35:28;;;;;;;1999.90;999.90;;;0.00;99.90;;;;;;5034754;28;20173;-67
2022/12/10 06:37:54;;;;;;;1999.90;999.90;;;0.10;99.90;;;;;;5034486;28;20268;-67
2022/12/10 06:40:19;;;;;;;1999.90;999.90;;;0.10;99.90;;;;;;5034671;28;20219;-67
2022/12/10 06:42:45;;;;;;;1999.90;999.90;;;0.10;99.90;;;;;;5034634;28;20168;-67
2022/12/10 06:45:10;;;;;;;1999.90;999.90;;;0.10;99.90;;;;;;5034504;28;20183;-67
2022/12/10 06:47:36;;;;;;;1999.90;999.90;;;0.10;99.90;;;;;;5034244;28;20645;-67
2022/12/10 06:50:02;;;;;;;1999.90;999.90;;;0.20;99.90;;;;;;5034302;28;20658;-67
2022/12/10 06:52:28;;;;;;;1999.90;999.90;;;0.30;99.90;;;;;;5034342;28;20403;-67
2022/12/10 06:54:54;;;;;;;1999.90;999.90;;;0.30;99.90;;;;;;5034337;28;20608;-67
2022/12/10 06:57:20;;;;;;;1999.90;999.90;;;0.30;99.90;;;;;;5034099;28;20187;-67
2022/12/10 06:59:46;;;;;;;1999.90;999.90;;;0.20;99.90;;;;;;5034066;28;20192;-67
2022/12/10 07:02:12;;;;;;;1999.90;999.90;;;0.10;99.90;;;;;;5034133;28;20466;-67
2022/12/10 07:04:37;;;;;;;1999.90;999.90;;;0.10;99.90;;;;;;5034237;28;20168;-68
2022/12/10 07:07:04;;;;;;;1999.90;999.90;;;0.10;99.90;;;;;;5034077;28;20247;-68
2022/12/10 07:09:31;;;;;;;1999.90;999.90;;;0.00;99.90;;;;;;5033965;28;20185;-68
2022/12/10 07:11:57;;;;;;;1999.90;999.90;;;0.00;99.90;;;;;;5034066;28;20669;-68
2022/12/10 07:14:23;;;;;;;1999.90;999.90;;;0.00;99.90;;;;;;5033839;28;20203;-68
2022/12/10 07:16:48;;;;;;;1999.90;999.90;;;0.00;99.90;;;;;;5033711;28;20188;-68
2022/12/10 07:19:14;;;;;;;1999.90;999.90;;;0.00;99.90;;;;;;5033845;28;20560;-68
2022/12/10 07:21:41;;;;;;;1999.90;999.90;;;0.00;99.90;;;;;;5033870;28;20295;-68
2022/12/10 07:24:10;;;;;;;1999.90;999.90;;;0.10;99.90;;;;;;5033763;28;20184;-68
2022/12/10 07:26:39;;;;;;;1999.90;999.90;;;0.10;99.90;;;;;;5033631;28;20200;-68
2022/12/10 07:29:06;;;;;;;1999.90;999.90;;;0.10;99.90;;;;;;5033352;28;20189;-68
2022/12/10 07:31:33;;;;;;;1999.90;999.90;;;0.00;99.90;;;;;;5033625;28;20263;-68
2022/12/10 07:33:59;;;;;;;1999.90;999.90;;;-0.10;99.90;;;;;;5033570;28;20251;-68
2022/12/10 07:36:26;;;;;;;1999.90;999.90;;;-0.10;99.90;;;;;;5033539;28;20199;-68
2022/12/10 07:38:52;;;;;;;1999.90;999.90;;;-0.10;99.90;;;;;;5033266;28;20860;-68
2022/12/10 07:41:18;;;;;;;1999.90;999.90;;;-0.10;99.90;;;;;;5033465;28;20172;-68
2022/12/10 07:43:45;;;;;;;1999.90;999.90;;;0.00;99.90;;;;;;5033371;28;20223;-67
2022/12/10 07:46:14;;;;;;;1999.90;999.90;;;0.00;99.90;;;;;;5033330;28;21068;-67
2022/12/10 07:48:41;;;;;;;1999.90;999.90;;;0.10;99.90;;;;;;5032528;28;20673;-68
2022/12/10 07:51:07;;;;;;;1999.90;999.90;;;0.10;99.90;;;;;;5033274;28;20212;-68
2022/12/10 07:53:33;;;;;;;1999.90;999.90;;;0.20;99.90;;;;;;5033217;28;20291;-67
2022/12/10 07:55:59;;;;;;;1999.90;999.90;;;0.20;99.90;;;;;;5033148;28;20184;-67
2022/12/10 07:58:24;;;;;;;1999.90;999.90;;;0.30;99.90;;;;;;5032963;28;20229;-67
2022/12/10 08:00:50;;;;;;;1999.90;999.90;;;0.40;99.90;;;;;;5033132;28;20657;-67
2022/12/10 08:03:16;;;;;;;1999.90;999.90;;;0.30;99.90;;;;;;5033084;28;20238;-67
2022/12/10 08:05:41;;;;;;;1999.90;999.90;;;0.30;99.90;;;;;;5033010;28;20164;-67
2022/12/10 08:08:07;;;;;;;1999.90;999.90;;;0.30;99.90;;;;;;5032730;28;20168;-68
2022/12/10 08:10:37;;;;;;;1999.90;999.90;;;0.40;99.90;;;;;;5032893;28;20423;-68
2022/12/10 08:13:03;;;;;;;1999.90;999.90;;;0.30;99.90;;;;;;5032754;28;20178;-68
2022/12/10 08:15:29;;;;;;;1999.90;999.90;;;0.40;99.90;;;;;;5032862;28;20169;-68
2022/12/10 08:17:55;;;;;;;1999.90;999.90;;;0.50;99.90;;;;;;5032528;28;20168;-68
2022/12/10 08:20:22;;;;;;;1999.90;999.90;;;0.60;99.90;;;;;;5032687;28;20184;-67
2022/12/10 08:22:48;;;;;;;1999.90;999.90;;;0.70;99.90;;;;;;5032624;28;20168;-67
2022/12/10 08:25:13;;;;;;;1999.90;999.90;;;0.70;99.90;;;;;;5032618;28;20166;-67
2022/12/10 08:27:39;;;;;;;1999.90;999.90;;;0.70;99.90;;;;;;5032251;28;20203;-67
2022/12/10 08:30:06;;;;;;;1999.90;999.90;;;0.70;99.90;;;;;;5032546;28;20231;-67
2022/12/10 08:32:31;;;;;;;1999.90;999.90;;;0.80;99.90;;;;;;5032520;28;20230;-67
2022/12/10 08:34:57;;;;;;;1999.90;999.90;;;0.80;99.90;;;;;;5032409;28;20203;-67
2022/12/10 08:37:22;;;;;;;1999.90;999.90;;;0.90;99.90;;;;;;5032213;28;20187;-67
2022/12/10 08:39:48;;;;;;;1999.90;999.90;;;1.00;99.90;;;;;;5032202;28;20216;-67
2022/12/10 08:42:13;;;;;;;1999.90;999.90;;;1.00;99.90;;;;;;5032397;28;20221;-67
2022/12/10 08:44:39;;;;;;;1999.90;999.90;;;1.00;99.90;;;;;;5032641;28;20173;-67
2022/12/10 08:47:05;;;;;;;1999.90;999.90;;;1.00;99.90;;;;;;5032096;28;20187;-67
2022/12/10 08:49:31;;;;;;;1999.90;999.90;;;1.10;99.90;;;;;;5032063;28;20216;-67
2022/12/10 08:51:56;;;;;;;1999.90;999.90;;;1.10;99.90;;;;;;5032239;28;20184;-68
2022/12/10 08:54:22;;;;;;;1999.90;999.90;;;1.10;99.90;;;;;;5032103;28;20202;-68
2022/12/10 08:56:47;;;;;;;1999.90;999.90;;;1.10;99.90;;;;;;5031858;28;20172;-67
2022/12/10 08:59:13;;;;;;;1999.90;999.90;;;1.20;99.90;;;;;;5031828;28;20219;-67
2022/12/10 09:01:39;;;;;;;1999.90;999.90;;;1.20;99.90;;;;;;5031425;28;20171;-67
2022/12/10 09:04:04;;;;;;;1999.90;999.90;;;1.30;99.90;;;;;;5032095;28;20191;-67
2022/12/10 09:06:30;;;;;;;1999.90;999.90;;;1.30;99.90;;;;;;5031971;28;20259;-67
2022/12/10 09:08:57;;;;;;;1999.90;999.90;;;1.30;99.90;;;;;;5031739;28;20283;-67
2022/12/10 09:11:27;;;;;;;1999.90;999.90;;;1.40;99.90;;;;;;5031871;28;20912;-67
2022/12/10 09:13:53;;;;;;;1999.90;999.90;;;1.40;99.90;;;;;;5031915;28;20322;-67
2022/12/10 09:16:19;;;;;;;1999.90;999.90;;;1.40;99.90;;;;;;5031796;28;20167;-68
2022/12/10 09:18:44;;;;;;;1999.90;999.90;;;1.40;99.90;;;;;;5031656;28;20192;-67
2022/12/10 09:21:14;;;;;;;1999.90;999.90;;;1.50;99.90;;;;;;5032401;28;20211;-68
2022/12/10 09:23:40;;;;;;;1999.90;999.90;;;1.50;99.90;;;;;;5031778;28;20411;-68
2022/12/10 09:26:12;;;;;;;1999.90;999.90;;;1.50;99.90;;;;;;5031664;28;20176;-68
2022/12/10 09:28:37;;;;;;;1999.90;999.90;;;1.50;99.90;;;;;;5031535;28;20226;-68
2022/12/10 09:31:05;;;;;;;1999.90;999.90;;;1.50;99.90;;;;;;5031796;28;20176;-68
2022/12/10 09:33:31;;;;;;;1999.90;999.90;;;1.60;99.90;;;;;;5031717;28;20196;-68
2022/12/10 09:35:57;;;;;;;1999.90;999.90;;;1.60;99.90;;;;;;5031645;28;20172;-68
2022/12/10 09:38:24;;;;;;;1999.90;999.90;;;1.50;99.90;;;;;;5031439;28;20164;-68
2022/12/10 09:41:26;;;;;;;1999.90;999.90;;;1.60;99.90;;;;;;5031640;28;20165;-68
2022/12/10 09:44:19;;;;;;;1999.90;999.90;;;1.70;99.90;;;;;;5031737;28;20168;-68
2022/12/10 09:47:03;;;;;;;1999.90;999.90;;;1.70;99.90;;;;;;5012060;28;20199;-68
2022/12/10 09:49:46;;;;;;;1999.90;999.90;;;1.80;99.90;;;;;;5031562;28;20223;-68
2022/12/10 09:52:23;;;;;;;1999.90;999.90;;;2.00;99.90;;;;;;5031636;28;20215;-68
2022/12/10 09:55:00;;;;;;;1999.90;999.90;;;2.10;99.90;;;;;;5031403;28;20245;-68
2022/12/10 09:57:30;;;;;;;1999.90;999.90;;;2.20;99.90;;;;;;5031455;28;20649;-68
2022/12/10 10:00:00;;;;;;;1999.90;999.90;;;2.20;99.90;;;;;;5031353;28;20665;-68
2022/12/10 10:02:30;;;;;;;1999.90;999.90;;;2.10;99.90;;;;;;5031541;28;20176;-68
2022/12/10 10:05:10;;;;;;;1999.90;999.90;;;2.10;99.90;;;;;;5031502;28;20168;-68
2022/12/10 10:07:45;;;;;;;1999.90;999.90;;;2.20;99.90;;;;;;5031426;28;20734;-68
2022/12/10 10:10:31;;;;;;;1999.90;999.90;;;2.30;99.90;;;;;;5031328;28;20188;-68
2022/12/10 10:13:28;;;;;;;1999.90;999.90;;;2.40;99.90;;;;;;5034654;28;20639;-68
2022/12/10 10:15:54;;;;;;;1999.90;999.90;;;2.60;99.90;;;;;;5035070;28;20603;-68
2022/12/10 10:18:43;;;;;;;1999.90;999.90;;;2.70;99.90;;;;;;5034844;28;20165;-68
2022/12/10 10:21:29;;;;;;;1999.90;999.90;;;2.70;99.90;;;;;;5034945;28;20263;-68
2022/12/10 10:23:56;;;;;;;1999.90;999.90;;;2.60;99.90;;;;;;5034867;28;20180;-68
2022/12/10 10:26:25;;;;;;;1999.90;999.90;;;2.60;99.90;;;;;;5034772;28;20657;-68
2022/12/10 10:29:05;;;;;;;1999.90;999.90;;;2.60;99.90;;;;;;5034344;28;20678;-68
2022/12/10 10:31:33;;;;;;;1999.90;999.90;;;2.70;99.90;;;;;;5034315;28;20169;-68
2022/12/10 10:34:02;;;;;;;1999.90;999.90;;;2.70;99.90;;;;;;5034674;28;20318;-68
2022/12/10 10:36:34;;;;;;;1999.90;999.90;;;2.80;99.60;;;;;;5034638;28;20187;-68
2022/12/10 10:39:27;;;;;;;1999.90;999.90;;;2.80;76.90;;;;;;5034383;28;20275;-68
2022/12/10 10:41:56;;;;;;;1999.90;999.90;;;2.60;54.30;;;;;;5034628;28;20171;-68
2022/12/10 10:44:34;;;;;;;1999.90;999.90;;;2.50;40.90;;;;;;5034656;28;20172;-68
2022/12/10 10:47:00;;;;;;;1999.90;999.90;;;2.40;52.30;;;;;;5034338;28;20183;-68
2022/12/10 10:49:34;;;;;;;1999.90;999.90;;;2.60;2.30;;;;;;5034238;28;20204;-68
2022/12/10 10:52:27;;;;;;;1999.90;999.90;;;2.70;1.00;;;;;;5034356;28;20239;-68
2022/12/10 10:54:52;;;;;;;1999.90;999.90;;;3.00;1.00;;;;;;5032110;28;20212;-68
2022/12/10 10:57:33;;;;;;;1999.90;999.90;;;3.40;1.00;;;;;;5034120;28;20541;-68
2022/12/10 11:00:25;;;;;;;1999.90;999.90;;;3.80;1.00;;;;;;5033924;28;20665;-68
2022/12/10 11:02:51;;;;;;;1999.90;999.90;;;4.20;99.90;;;;;;5032282;28;20172;-68
2022/12/10 11:05:19;;;;;;;1999.90;999.90;;;4.40;99.90;;;;;;5033990;28;20421;-68
2022/12/10 11:07:45;;;;;;;1999.90;999.90;;;4.60;93.10;;;;;;5033840;28;20189;-68
2022/12/10 11:10:24;;;;;;;1999.90;999.90;;;5.00;77.90;;;;;;5034013;28;20435;-68
2022/12/10 11:13:04;;;;;;;1999.90;999.90;;;5.30;1.00;;;;;;5034010;28;20217;-68
2022/12/10 11:15:41;;;;;;;1999.90;999.90;;;5.60;99.90;;;;;;5034127;28;20419;-68
2022/12/10 11:18:34;;;;;;;1999.90;999.90;;;6.20;99.90;;;;;;5033763;28;20407;-68
2022/12/10 11:21:12;;;;;;;1999.90;999.90;;;6.80;1.00;;;;;;5033880;28;20403;-68
2022/12/10 11:23:44;;;;;;;1999.90;999.90;;;7.40;99.90;;;;;;5032881;28;20464;-68
2022/12/10 11:26:34;;;;;;;1999.90;999.90;;;7.80;1.00;;;;;;5033744;28;20820;-68
2022/12/10 11:29:36;;;;;;;1999.90;999.90;;;8.10;99.90;;;;;;5033447;28;20494;-68
2022/12/10 11:32:28;;;;;;;1999.90;999.90;;;8.00;1.00;;;;;;5033745;28;20405;-68
2022/12/10 11:35:25;;;;;;;1999.90;999.90;;;7.80;1.00;;;;;;5017846;28;20472;-68
2022/12/10 11:37:53;;;;;;;1999.90;999.90;;;7.70;1.00;;;;;;5033238;28;20901;-68
2022/12/10 11:40:38;;;;;;;1999.90;999.90;;;7.60;1.00;;;;;;5033316;28;20436;-68
2022/12/10 11:43:21;;;;;;;1999.90;999.90;;;7.60;1.00;;;;;;5033487;28;20798;-68
2022/12/10 11:46:11;;;;;;;1999.90;999.90;;;7.90;1.00;;;;;;5033477;28;20414;-68
2022/12/10 11:48:52;;;;;;;1999.90;999.90;;;7.80;99.90;;;;;;5033147;28;20521;-68
2022/12/10 11:51:51;;;;;;;1999.90;999.90;;;7.30;99.90;;;;;;5033364;28;20419;-68
2022/12/10 11:55:00;;;;;;;1999.90;999.90;;;7.60;1.00;;;;;;5033378;28;20452;-68
2022/12/10 11:57:44;;;;;;;1999.90;999.90;;;8.20;1.00;;;;;;4991284;28;20799;-68
2022/12/10 12:00:23;;;;;;;1999.90;999.90;;;9.00;99.90;;;;;;5029742;28;20526;-68
2022/12/10 12:02:59;;;;;;;1999.90;999.90;;;9.50;1.00;;;;;;5033303;28;20391;-68
2022/12/10 12:06:02;;;;;;;1999.90;999.90;;;10.00;1.00;;;;;;5033112;28;20883;-68
2022/12/10 12:08:52;;;;;;;1999.90;999.90;;;10.20;99.90;;;;;;5032710;28;20410;-68
2022/12/10 12:11:53;;;;;;;1999.90;999.90;;;10.40;1.00;;;;;;5033143;28;20892;-68
2022/12/10 12:14:38;;;;;;;1999.90;999.90;;;10.70;99.90;;;;;;5032864;28;20465;-68
2022/12/10 12:17:14;;;;;;;1999.90;999.90;;;11.20;99.90;;;;;;5032643;28;20410;-68
2022/12/10 12:19:46;;;;;;;1999.90;999.90;;;11.40;99.90;;;;;;5032768;28;20417;-68
2022/12/10 12:22:36;;;;;;;1999.90;999.90;;;11.90;99.90;;;;;;5032801;28;20391;-68
2022/12/10 12:25:16;;;;;;;1999.90;999.90;;;12.20;99.90;;;;;;5032705;28;20404;-68
2022/12/10 12:27:51;;;;;;;1999.90;999.90;;;12.30;99.90;;;;;;5032604;28;20403;-68
2022/12/10 12:30:19;;;;;;;1999.90;999.90;;;12.60;99.90;;;;;;5032652;28;20838;-68
2022/12/10 12:33:10;;;;;;;1999.90;999.90;;;12.70;99.90;;;;;;5032553;28;20947;-68
2022/12/10 12:36:04;;;;;;;1999.90;999.90;;;12.90;99.90;;;;;;5032279;28;20827;-68